createdAt,value
2022-11-16T00:02:26.920Z,8.05
2022-11-16T00:04:53.481Z,8.63
2022-11-16T00:07:20.111Z,8.15
2022-11-16T00:09:48.074Z,6.88
2022-11-16T00:12:14.483Z,7.15
2022-11-16T00:14:40.895Z,6.90
2022-11-16T00:17:07.318Z,7.68
2022-11-16T00:19:33.770Z,6.57
2022-11-16T00:22:00.234Z,5.97
2022-11-16T00:24:26.638Z,6.63
2022-11-16T00:26:55.719Z,7.28
2022-11-16T00:31:49.600Z,10.13
2022-11-16T00:34:16.197Z,7.50
2022-11-16T00:36:43.048Z,7.78
2022-11-16T00:39:11.228Z,8.43
2022-11-16T00:41:37.760Z,7.33
2022-11-16T00:44:05.864Z,7.95
2022-11-16T00:46:32.569Z,12.57
2022-11-16T00:48:59.044Z,7.25
2022-11-16T00:51:25.493Z,10.15
2022-11-16T00:53:52.024Z,10.50
2022-11-16T00:56:18.733Z,8.98
2022-11-16T00:58:45.490Z,11.50
2022-11-16T01:01:13.924Z,12.13
2022-11-16T01:03:40.425Z,8.75
2022-11-16T01:06:10.313Z,9.30
2022-11-16T01:08:38.268Z,10.73
2022-11-16T01:11:05.953Z,10.25
2022-11-16T01:13:32.450Z,10.90
2022-11-16T01:15:58.909Z,11.27
2022-11-16T01:18:26.737Z,11.20
2022-11-16T01:20:53.205Z,10.68
2022-11-16T01:23:19.669Z,12.20
2022-11-16T01:25:46.111Z,11.45
2022-11-16T01:28:12.657Z,14.02
2022-11-16T01:30:48.282Z,13.27
2022-11-16T01:33:14.834Z,14.40
2022-11-16T01:35:44.120Z,10.90
2022-11-16T01:38:12.209Z,14.02
2022-11-16T01:40:39.130Z,12.40
2022-11-16T01:43:15.805Z,14.35
2022-11-16T01:45:43.734Z,14.48
2022-11-16T01:48:16.023Z,11.35
2022-11-16T01:50:45.649Z,12.93
2022-11-16T01:53:13.346Z,12.23
2022-11-16T01:55:47.990Z,9.40
2022-11-16T01:58:22.485Z,12.45
2022-11-16T02:00:55.058Z,13.88
2022-11-16T02:03:41.408Z,12.40
2022-11-16T02:06:36.050Z,9.90
2022-11-16T02:09:31.205Z,11.15
2022-11-16T02:12:30.838Z,9.85
2022-11-16T02:15:08.459Z,11.68
2022-11-16T02:17:43.847Z,10.98
2022-11-16T02:20:42.386Z,14.13
2022-11-16T02:23:31.739Z,16.10
2022-11-16T02:26:14.142Z,11.02
2022-11-16T02:28:53.192Z,10.75
2022-11-16T02:33:52.848Z,11.63
2022-11-16T02:36:24.106Z,9.27
2022-11-16T02:38:56.297Z,10.15
2022-11-16T02:41:26.318Z,13.30
2022-11-16T02:43:56.998Z,11.50
2022-11-16T02:46:29.078Z,9.85
2022-11-16T02:48:59.782Z,15.68
2022-11-16T02:51:28.194Z,10.38
2022-11-16T02:54:01.805Z,10.82
2022-11-16T02:56:29.310Z,11.05
2022-11-16T02:58:57.494Z,11.93
2022-11-16T03:01:31.099Z,9.63
2022-11-16T03:04:03.097Z,9.23
2022-11-16T03:06:32.929Z,9.55
2022-11-16T03:09:02.746Z,10.15
2022-11-16T03:11:34.301Z,9.98
2022-11-16T03:14:07.758Z,12.35
2022-11-16T03:16:38.229Z,11.90
2022-11-16T03:19:09.142Z,11.85
2022-11-16T03:21:39.703Z,9.65
2022-11-16T03:24:07.557Z,12.73
2022-11-16T03:26:47.600Z,11.65
2022-11-16T03:29:20.698Z,9.27
2022-11-16T03:31:54.178Z,11.60
2022-11-16T03:34:25.393Z,8.98
2022-11-16T03:36:54.822Z,8.93
2022-11-16T03:41:50.493Z,9.35
2022-11-16T03:44:20.356Z,10.50
2022-11-16T03:46:47.512Z,9.53
2022-11-16T03:49:21.075Z,9.70
2022-11-16T03:51:48.190Z,7.88
2022-11-16T03:54:14.949Z,7.90
2022-11-16T03:56:41.820Z,7.03
2022-11-16T03:59:08.946Z,4.45
2022-11-16T04:01:37.391Z,3.80
2022-11-16T04:04:09.019Z,3.05
2022-11-16T04:06:36.875Z,2.60
2022-11-16T04:09:04.938Z,2.88
2022-11-16T04:11:32.640Z,2.45
2022-11-16T04:13:59.614Z,2.72
2022-11-16T04:16:27.647Z,1.20
2022-11-16T04:18:54.134Z,2.20
2022-11-16T04:21:25.595Z,1.58
2022-11-16T04:23:53.455Z,1.23
2022-11-16T04:26:20.104Z,2.13
2022-11-16T04:28:46.818Z,1.30
2022-11-16T04:31:13.815Z,1.27
2022-11-16T04:33:45.104Z,0.93
2022-11-16T04:36:14.419Z,1.25
2022-11-16T04:38:44.544Z,3.40
2022-11-16T04:41:12.387Z,1.63
2022-11-16T04:43:39.000Z,1.23
2022-11-16T04:46:08.585Z,1.73
2022-11-16T04:48:39.177Z,1.50
2022-11-16T04:51:06.287Z,1.30
2022-11-16T04:53:33.913Z,1.40
2022-11-16T04:56:07.901Z,1.50
2022-11-16T04:58:36.043Z,2.70
2022-11-16T05:01:03.030Z,2.45
2022-11-16T05:03:29.587Z,1.85
2022-11-16T05:05:56.174Z,2.65
2022-11-16T05:08:22.985Z,1.50
2022-11-16T05:10:52.033Z,2.50
2022-11-16T05:13:19.101Z,1.40
2022-11-16T05:15:46.969Z,1.33
2022-11-16T05:18:13.563Z,1.25
2022-11-16T05:20:40.041Z,0.90
2022-11-16T05:23:08.117Z,1.02
2022-11-16T05:25:37.189Z,1.73
2022-11-16T05:28:06.741Z,0.82
2022-11-16T05:30:37.207Z,0.93
2022-11-16T05:33:05.442Z,1.38
2022-11-16T05:35:36.571Z,0.90
2022-11-16T05:38:03.119Z,2.15
2022-11-16T05:40:33.094Z,0.98
2022-11-16T05:43:00.615Z,1.48
2022-11-16T05:45:29.833Z,1.40
2022-11-16T05:47:58.504Z,1.40
2022-11-16T05:50:27.490Z,1.98
2022-11-16T05:53:05.868Z,2.22
2022-11-16T05:55:35.159Z,1.55
2022-11-16T05:58:02.114Z,1.42
2022-11-16T06:00:28.636Z,1.80
2022-11-16T06:02:55.487Z,1.55
2022-11-16T06:05:28.323Z,2.88
2022-11-16T06:07:56.491Z,2.10
2022-11-16T06:10:23.436Z,2.28
2022-11-16T06:12:51.880Z,2.10
2022-11-16T06:15:18.696Z,3.53
2022-11-16T06:17:45.244Z,1.48
2022-11-16T06:20:12.783Z,3.30
2022-11-16T06:22:41.457Z,2.45
2022-11-16T06:25:09.314Z,2.63
2022-11-16T06:27:39.687Z,1.70
2022-11-16T06:30:08.384Z,2.38
2022-11-16T06:32:35.595Z,1.40
2022-11-16T06:35:04.046Z,2.35
2022-11-16T06:37:32.940Z,4.50
2022-11-16T06:40:00.853Z,2.10
2022-11-16T06:42:34.526Z,2.58
2022-11-16T06:45:01.595Z,5.03
2022-11-16T06:47:34.209Z,2.55
2022-11-16T06:50:01.073Z,2.35
2022-11-16T06:52:27.661Z,2.22
2022-11-16T06:54:54.808Z,2.20
2022-11-16T06:57:22.784Z,1.60
2022-11-16T06:59:49.685Z,3.57
2022-11-16T07:02:16.391Z,1.83
2022-11-16T07:04:44.351Z,2.58
2022-11-16T07:07:11.099Z,3.33
2022-11-16T07:09:39.092Z,2.70
2022-11-16T07:12:05.914Z,2.50
2022-11-16T07:14:37.983Z,2.65
2022-11-16T07:17:09.491Z,2.78
2022-11-16T07:19:36.786Z,1.63
2022-11-16T07:22:03.433Z,2.40
2022-11-16T07:24:30.563Z,2.60
2022-11-16T07:26:57.131Z,2.47
2022-11-16T07:29:25.758Z,1.88
2022-11-16T07:32:19.358Z,2.40
2022-11-16T07:35:10.282Z,2.55
2022-11-16T07:37:38.068Z,2.35
2022-11-16T07:40:07.269Z,5.18
2022-11-16T07:42:33.788Z,1.83
2022-11-16T07:45:20.522Z,2.03
2022-11-16T07:47:54.223Z,2.13
2022-11-16T07:50:38.039Z,2.10
2022-11-16T07:53:04.539Z,1.60
2022-11-16T07:55:31.103Z,2.70
2022-11-16T07:58:00.143Z,3.58
2022-11-16T08:00:27.242Z,3.95
2022-11-16T08:03:04.641Z,1.98
2022-11-16T08:05:31.098Z,2.08
2022-11-16T08:07:57.585Z,2.50
2022-11-16T08:10:25.460Z,3.47
2022-11-16T08:12:53.394Z,4.78
2022-11-16T08:15:21.058Z,2.13
2022-11-16T08:17:47.634Z,1.75
2022-11-16T08:20:16.103Z,2.03
2022-11-16T08:22:43.734Z,2.53
2022-11-16T08:25:11.211Z,1.90
2022-11-16T08:27:41.035Z,3.17
2022-11-16T08:30:09.355Z,2.05
2022-11-16T08:32:36.675Z,1.85
2022-11-16T08:35:04.470Z,2.13
2022-11-16T08:37:32.454Z,2.17
2022-11-16T08:39:59.028Z,1.52
2022-11-16T08:42:25.546Z,2.47
2022-11-16T08:44:52.098Z,3.95
2022-11-16T08:47:20.170Z,3.53
2022-11-16T08:49:55.407Z,2.08
2022-11-16T08:52:24.088Z,3.13
2022-11-16T08:54:53.863Z,3.80
2022-11-16T08:57:20.639Z,2.13
2022-11-16T08:59:51.889Z,2.63
2022-11-16T09:02:18.471Z,2.97
2022-11-16T09:04:44.950Z,3.10
2022-11-16T09:07:11.546Z,2.22
2022-11-16T09:09:38.051Z,3.50
2022-11-16T09:12:06.462Z,2.28
2022-11-16T09:14:32.952Z,2.63
2022-11-16T09:16:59.607Z,3.50
2022-11-16T09:19:26.176Z,2.35
2022-11-16T09:21:52.635Z,3.33
2022-11-16T09:24:20.608Z,4.75
2022-11-16T09:26:47.123Z,3.92
2022-11-16T09:29:15.317Z,1.85
2022-11-16T09:31:43.059Z,1.70
2022-11-16T09:34:09.617Z,1.67
2022-11-16T09:36:36.264Z,3.13
2022-11-16T09:39:28.976Z,1.52
2022-11-16T09:42:05.719Z,2.10
2022-11-16T09:44:44.058Z,2.47
2022-11-16T09:47:17.061Z,1.92
2022-11-16T09:49:49.260Z,2.25
2022-11-16T09:52:24.560Z,2.35
2022-11-16T09:54:53.646Z,3.35
2022-11-16T09:57:27.765Z,2.25
2022-11-16T10:00:00.723Z,1.35
2022-11-16T10:02:32.138Z,1.05
2022-11-16T10:05:03.536Z,1.67
2022-11-16T10:07:37.023Z,1.85
2022-11-16T10:10:03.984Z,2.83
2022-11-16T10:12:37.557Z,1.77
2022-11-16T10:15:38.431Z,2.28
2022-11-16T10:18:19.741Z,1.55
2022-11-16T10:20:59.385Z,1.85
2022-11-16T10:23:41.729Z,3.05
2022-11-16T10:26:20.223Z,4.82
2022-11-16T10:31:37.096Z,1.30
2022-11-16T10:34:06.425Z,1.95
2022-11-16T10:36:35.864Z,2.22
2022-11-16T10:39:02.621Z,2.10
2022-11-16T10:41:34.960Z,1.83
2022-11-16T10:47:01.727Z,1.45
2022-11-16T10:49:36.415Z,1.40
2022-11-16T10:52:03.004Z,1.70
2022-11-16T10:54:29.587Z,2.17
2022-11-16T10:57:04.006Z,1.58
2022-11-16T10:59:42.727Z,1.60
2022-11-16T11:02:32.971Z,2.50
2022-11-16T11:05:15.087Z,2.05
2022-11-16T11:07:45.480Z,1.30
2022-11-16T11:10:24.846Z,1.13
2022-11-16T11:13:03.812Z,1.90
2022-11-16T11:18:18.553Z,3.30
2022-11-16T11:20:47.997Z,2.95
2022-11-16T11:23:17.305Z,3.47
2022-11-16T11:25:51.126Z,2.70
2022-11-16T11:28:22.359Z,1.35
2022-11-16T11:30:56.271Z,2.05
2022-11-16T11:33:25.580Z,2.72
2022-11-16T11:35:58.928Z,1.52
2022-11-16T11:38:25.608Z,2.67
2022-11-16T11:40:57.899Z,0.80
2022-11-16T11:43:24.938Z,1.48
2022-11-16T11:45:56.734Z,2.22
2022-11-16T11:48:33.746Z,2.17
2022-11-16T11:51:08.992Z,1.52
2022-11-16T11:53:49.530Z,1.25
2022-11-16T11:56:17.371Z,1.98
2022-11-16T11:58:45.578Z,1.52
2022-11-16T12:01:34.556Z,1.57
2022-11-16T12:06:58.615Z,0.80
2022-11-16T12:09:36.268Z,2.90
2022-11-16T12:12:15.069Z,1.98
2022-11-16T12:14:58.239Z,1.95
2022-11-16T12:17:35.624Z,1.75
2022-11-16T12:20:21.617Z,1.65
2022-11-16T12:23:03.919Z,1.85
2022-11-16T12:25:38.103Z,1.27
2022-11-16T12:28:17.331Z,1.60
2022-11-16T12:30:55.946Z,1.67
2022-11-16T12:33:31.804Z,3.00
2022-11-16T12:36:08.216Z,1.77
2022-11-16T12:38:47.649Z,1.63
2022-11-16T12:41:41.495Z,2.17
2022-11-16T12:44:10.714Z,1.17
2022-11-16T12:46:48.616Z,1.50
2022-11-16T12:49:48.796Z,2.47
2022-11-16T12:52:34.443Z,1.10
2022-11-16T12:55:26.834Z,1.75
2022-11-16T12:58:07.388Z,3.25
2022-11-16T13:00:46.296Z,1.67
2022-11-16T13:03:19.849Z,1.55
2022-11-16T13:05:55.829Z,1.83
2022-11-16T13:08:35.731Z,1.70
2022-11-16T13:11:09.394Z,1.45
2022-11-16T13:13:38.906Z,1.25
2022-11-16T13:16:07.521Z,1.20
2022-11-16T13:18:37.585Z,0.68
2022-11-16T13:21:07.890Z,1.63
2022-11-16T13:23:52.138Z,0.90
2022-11-16T13:26:24.342Z,0.90
2022-11-16T13:28:58.342Z,0.90
2022-11-16T13:31:32.345Z,2.60
2022-11-16T13:34:01.441Z,1.00
2022-11-16T13:39:21.828Z,3.00
2022-11-16T13:41:50.426Z,2.75
2022-11-16T13:44:28.990Z,2.35
2022-11-16T13:46:59.438Z,0.95
2022-11-16T13:49:29.798Z,1.55
2022-11-16T13:52:07.016Z,0.75
2022-11-16T13:54:48.916Z,1.25
2022-11-16T13:57:26.922Z,1.33
2022-11-16T14:00:08.963Z,2.03
2022-11-16T14:02:37.673Z,0.50
2022-11-16T14:05:13.425Z,0.73
2022-11-16T14:07:41.156Z,2.25
2022-11-16T14:10:10.457Z,1.05
2022-11-16T14:12:55.378Z,2.17
2022-11-16T14:15:22.854Z,0.82
2022-11-16T14:17:51.933Z,1.20
2022-11-16T14:23:06.482Z,1.10
2022-11-16T14:25:40.656Z,1.30
2022-11-16T14:28:38.287Z,1.42
2022-11-16T14:31:14.999Z,2.05
2022-11-16T14:33:42.469Z,1.35
2022-11-16T14:36:10.242Z,1.00
2022-11-16T14:38:38.984Z,1.77
2022-11-16T14:41:13.319Z,1.35
2022-11-16T14:43:46.627Z,1.10
2022-11-16T14:46:21.924Z,3.25
2022-11-16T14:48:49.342Z,2.65
2022-11-16T14:51:21.370Z,2.90
2022-11-16T14:53:50.407Z,1.70
2022-11-16T14:58:52.886Z,3.63
2022-11-16T15:01:22.394Z,3.58
2022-11-16T15:03:54.086Z,4.93
2022-11-16T15:06:21.638Z,2.20
2022-11-16T15:08:51.662Z,2.15
2022-11-16T15:11:26.182Z,1.55
2022-11-16T15:13:54.042Z,1.85
2022-11-16T15:16:20.480Z,1.50
2022-11-16T15:18:57.705Z,1.70
2022-11-16T15:21:24.194Z,3.25
2022-11-16T15:24:15.319Z,1.48
2022-11-16T15:26:39.043Z,2.80
2022-11-16T15:29:05.675Z,2.20
2022-11-16T15:31:36.370Z,3.92
2022-11-16T15:34:02.955Z,1.23
2022-11-16T15:36:32.528Z,2.08
2022-11-16T15:39:02.112Z,1.40
2022-11-16T15:41:28.993Z,1.38
2022-11-16T15:44:13.942Z,2.97
2022-11-16T15:46:42.916Z,3.50
2022-11-16T15:49:19.489Z,3.88
2022-11-16T15:51:46.055Z,2.20
2022-11-16T15:54:14.073Z,4.35
2022-11-16T15:56:41.612Z,3.47
2022-11-16T15:59:16.793Z,2.25
2022-11-16T16:01:45.204Z,2.35
2022-11-16T16:04:15.950Z,3.03
2022-11-16T16:06:47.622Z,2.95
2022-11-16T16:09:23.116Z,2.00
2022-11-16T16:11:50.047Z,4.13
2022-11-16T16:14:27.569Z,2.63
2022-11-16T16:16:56.426Z,3.75
2022-11-16T16:19:42.295Z,3.38
2022-11-16T16:22:14.343Z,3.72
2022-11-16T16:24:43.051Z,5.88
2022-11-16T16:27:20.640Z,6.15
2022-11-16T16:29:50.095Z,3.45
2022-11-16T16:32:23.592Z,3.40
2022-11-16T16:34:50.179Z,4.18
2022-11-16T16:37:17.216Z,4.60
2022-11-16T16:39:43.811Z,3.15
2022-11-16T16:42:13.062Z,5.07
2022-11-16T16:44:39.670Z,2.95
2022-11-16T16:47:08.042Z,3.60
2022-11-16T16:49:34.926Z,3.25
2022-11-16T16:52:01.889Z,2.10
2022-11-16T16:54:28.489Z,4.47
2022-11-16T16:56:55.139Z,3.70
2022-11-16T16:59:21.799Z,2.58
2022-11-16T17:01:48.345Z,1.42
2022-11-16T17:04:16.573Z,3.05
2022-11-16T17:06:46.431Z,3.13
2022-11-16T17:09:13.936Z,2.83
2022-11-16T17:11:40.747Z,3.55
2022-11-16T17:14:07.379Z,4.78
2022-11-16T17:16:34.113Z,6.25
2022-11-16T17:19:01.043Z,6.25
2022-11-16T17:21:29.164Z,7.18
2022-11-16T17:23:55.612Z,4.07
2022-11-16T17:26:22.240Z,2.60
2022-11-16T17:28:48.980Z,4.63
2022-11-16T17:31:15.640Z,2.35
2022-11-16T17:33:47.176Z,2.90
2022-11-16T17:36:16.933Z,3.55
2022-11-16T17:38:45.069Z,4.55
2022-11-16T17:41:15.432Z,3.17
2022-11-16T17:43:43.775Z,1.80
2022-11-16T17:46:12.432Z,4.63
2022-11-16T17:48:40.120Z,3.78
2022-11-16T17:51:09.356Z,2.40
2022-11-16T17:53:36.819Z,2.85
2022-11-16T17:56:06.104Z,3.30
2022-11-16T18:01:00.180Z,3.75
2022-11-16T18:03:26.805Z,4.38
2022-11-16T18:06:01.845Z,3.25
2022-11-16T18:08:28.469Z,4.63
2022-11-16T18:10:55.078Z,4.40
2022-11-16T18:13:23.137Z,4.05
2022-11-16T18:15:49.630Z,3.20
2022-11-16T18:18:16.402Z,6.10
2022-11-16T18:20:42.922Z,5.30
2022-11-16T18:23:09.367Z,5.72
2022-11-16T18:25:35.838Z,6.22
2022-11-16T18:28:02.547Z,5.55
2022-11-16T18:30:30.995Z,4.70
2022-11-16T18:32:57.482Z,6.32
2022-11-16T18:35:24.069Z,5.68
2022-11-16T18:37:50.912Z,7.45
2022-11-16T18:40:17.681Z,8.13
2022-11-16T18:42:44.188Z,7.70
2022-11-16T18:45:10.697Z,6.10
2022-11-16T18:47:38.706Z,7.32
2022-11-16T18:50:06.154Z,5.85
2022-11-16T18:52:32.737Z,4.55
2022-11-16T18:54:59.249Z,5.55
2022-11-16T18:57:25.735Z,4.85
2022-11-16T18:59:52.326Z,6.72
2022-11-16T19:02:18.826Z,6.57
2022-11-16T19:04:46.954Z,5.25
2022-11-16T19:07:13.932Z,3.65
2022-11-16T19:09:41.085Z,4.90
2022-11-16T19:12:07.557Z,5.57
2022-11-16T19:14:36.972Z,3.17
2022-11-16T19:17:03.483Z,8.05
2022-11-16T19:19:30.108Z,3.47
2022-11-16T19:21:57.966Z,4.07
2022-11-16T19:24:24.493Z,4.70
2022-11-16T19:26:51.605Z,4.00
2022-11-16T19:29:18.470Z,3.88
2022-11-16T19:31:45.004Z,4.90
2022-11-16T19:34:12.069Z,3.72
2022-11-16T19:36:39.025Z,6.38
2022-11-16T19:39:07.300Z,4.38
2022-11-16T19:41:33.917Z,4.50
2022-11-16T19:44:00.735Z,5.82
2022-11-16T19:46:28.677Z,8.60
2022-11-16T19:48:55.777Z,10.90
2022-11-16T19:51:24.222Z,11.45
2022-11-16T19:53:51.265Z,4.80
2022-11-16T19:56:21.449Z,5.43
2022-11-16T19:58:48.173Z,5.18
2022-11-16T20:01:17.065Z,6.50
2022-11-16T20:03:44.444Z,4.00
2022-11-16T20:06:12.883Z,5.75
2022-11-16T20:08:40.949Z,4.47
2022-11-16T20:11:11.947Z,4.28
2022-11-16T20:13:40.184Z,4.38
2022-11-16T20:16:08.354Z,4.67
2022-11-16T20:18:34.933Z,4.18
2022-11-16T20:21:02.513Z,5.30
2022-11-16T20:23:29.192Z,2.85
2022-11-16T20:25:55.884Z,4.05
2022-11-16T20:28:22.594Z,2.92
2022-11-16T20:30:50.445Z,4.00
2022-11-16T20:33:17.061Z,2.63
2022-11-16T20:35:43.712Z,3.80
2022-11-16T20:38:10.360Z,2.78
2022-11-16T20:40:36.965Z,3.47
2022-11-16T20:43:03.586Z,4.75
2022-11-16T20:45:33.270Z,3.53
2022-11-16T20:48:01.197Z,4.32
2022-11-16T20:50:27.784Z,3.47
2022-11-16T20:52:54.282Z,2.85
2022-11-16T20:55:20.809Z,4.43
2022-11-16T20:57:47.358Z,4.65
2022-11-16T21:00:15.058Z,3.13
2022-11-16T21:02:41.610Z,4.05
2022-11-16T21:05:09.649Z,4.18
2022-11-16T21:07:36.230Z,3.50
2022-11-16T21:10:03.018Z,3.97
2022-11-16T21:12:29.710Z,4.38
2022-11-16T21:14:56.213Z,3.20
2022-11-16T21:17:22.718Z,4.40
2022-11-16T21:20:12.097Z,3.78
2022-11-16T21:22:37.407Z,3.08
2022-11-16T21:25:04.285Z,2.50
2022-11-16T21:27:30.733Z,5.13
2022-11-16T21:29:57.218Z,6.18
2022-11-16T21:32:23.654Z,3.20
2022-11-16T21:34:50.181Z,3.65
2022-11-16T21:37:16.674Z,3.50
2022-11-16T21:39:44.537Z,5.13
2022-11-16T21:42:11.125Z,3.45
2022-11-16T21:44:37.641Z,3.88
2022-11-16T21:47:04.217Z,4.88
2022-11-16T21:49:30.698Z,3.67
2022-11-16T21:51:57.153Z,4.05
2022-11-16T21:54:23.658Z,4.38
2022-11-16T21:56:51.506Z,4.57
2022-11-16T21:59:18.082Z,4.45
2022-11-16T22:01:44.678Z,4.32
2022-11-16T22:04:11.231Z,4.80
2022-11-16T22:06:37.749Z,4.70
2022-11-16T22:09:04.359Z,4.78
2022-11-16T22:11:30.854Z,3.70
2022-11-16T22:13:58.653Z,3.70
2022-11-16T22:16:25.155Z,3.97
2022-11-16T22:18:51.608Z,2.90
2022-11-16T22:21:18.087Z,4.20
2022-11-16T22:23:44.742Z,4.03
2022-11-16T22:26:14.343Z,5.50
2022-11-16T22:28:41.195Z,4.88
2022-11-16T22:31:11.406Z,3.85
2022-11-16T22:33:38.632Z,3.95
2022-11-16T22:36:06.355Z,3.47
2022-11-16T22:38:33.295Z,2.60
2022-11-16T22:40:59.748Z,3.63
2022-11-16T22:43:29.929Z,4.25
2022-11-16T22:45:57.543Z,2.50
2022-11-16T22:48:28.640Z,3.83
2022-11-16T22:51:01.548Z,3.92
2022-11-16T22:53:27.987Z,4.50
2022-11-16T22:55:54.471Z,2.85
2022-11-16T22:58:20.960Z,5.03
2022-11-16T23:00:47.433Z,3.00
2022-11-16T23:03:13.978Z,6.00
2022-11-16T23:05:41.828Z,3.53
2022-11-16T23:08:08.312Z,4.20
2022-11-16T23:10:34.785Z,3.85
2022-11-16T23:13:01.317Z,4.53
2022-11-16T23:15:27.825Z,4.05
2022-11-16T23:17:54.296Z,2.55
2022-11-16T23:20:20.949Z,4.00
2022-11-16T23:22:48.816Z,2.85
2022-11-16T23:25:15.306Z,4.35
2022-11-16T23:27:48.728Z,4.35
2022-11-16T23:30:15.646Z,5.15
2022-11-16T23:32:42.649Z,3.00
2022-11-16T23:35:11.399Z,5.22
2022-11-16T23:37:51.837Z,2.70
2022-11-16T23:40:18.440Z,3.67
2022-11-16T23:42:44.890Z,2.15
2022-11-16T23:45:11.356Z,3.65
2022-11-16T23:47:37.953Z,3.90
2022-11-16T23:50:05.329Z,4.32
2022-11-16T23:52:31.922Z,2.22
2022-11-16T23:54:59.825Z,3.30
2022-11-16T23:57:26.322Z,2.35
2022-11-16T23:59:52.862Z,3.17
